sensor_id;sensor_type;location;lat;lon;timestamp;P1;durP1;ratioP1;P2;durP2;ratioP2
74219;SDS011;62580;54.416;11.120;2022-10-30T00:01:53;1.40;;;1.30;;
74219;SDS011;62580;54.416;11.120;2022-10-30T00:11:54;1.50;;;1.40;;
74219;SDS011;62580;54.416;11.120;2022-10-30T00:21:56;1.40;;;1.30;;
74219;SDS011;62580;54.416;11.120;2022-10-30T00:31:56;1.30;;;1.20;;
74219;SDS011;62580;54.416;11.120;2022-10-30T00:41:58;1.30;;;1.20;;
74219;SDS011;62580;54.416;11.120;2022-10-30T00:51:59;1.43;;;1.33;;
74219;SDS011;62580;54.416;11.120;2022-10-30T01:02:04;1.50;;;1.40;;
74219;SDS011;62580;54.416;11.120;2022-10-30T01:12:06;1.37;;;1.27;;
74219;SDS011;62580;54.416;11.120;2022-10-30T01:22:16;1.40;;;1.30;;
74219;SDS011;62580;54.416;11.120;2022-10-30T01:32:33;1.60;;;1.47;;
74219;SDS011;62580;54.416;11.120;2022-10-30T01:42:48;1.40;;;1.30;;
74219;SDS011;62580;54.416;11.120;2022-10-30T01:52:51;1.77;;;1.40;;
74219;SDS011;62580;54.416;11.120;2022-10-30T02:02:57;1.40;;;1.30;;
74219;SDS011;62580;54.416;11.120;2022-10-30T02:12:58;1.40;;;1.30;;
74219;SDS011;62580;54.416;11.120;2022-10-30T02:23:00;1.60;;;1.50;;
74219;SDS011;62580;54.416;11.120;2022-10-30T02:33:01;1.50;;;1.40;;
74219;SDS011;62580;54.416;11.120;2022-10-30T02:43:04;1.50;;;1.40;;
74219;SDS011;62580;54.416;11.120;2022-10-30T02:53:04;1.60;;;1.50;;
74219;SDS011;62580;54.416;11.120;2022-10-30T03:03:06;1.60;;;1.50;;
74219;SDS011;62580;54.416;11.120;2022-10-30T03:13:07;1.40;;;1.30;;
74219;SDS011;62580;54.416;11.120;2022-10-30T03:23:09;1.50;;;1.40;;
74219;SDS011;62580;54.416;11.120;2022-10-30T03:33:09;1.70;;;1.60;;
74219;SDS011;62580;54.416;11.120;2022-10-30T03:43:11;1.60;;;1.50;;
74219;SDS011;62580;54.416;11.120;2022-10-30T03:53:13;1.40;;;1.30;;
74219;SDS011;62580;54.416;11.120;2022-10-30T04:03:21;1.77;;;1.67;;
74219;SDS011;62580;54.416;11.120;2022-10-30T04:13:26;1.57;;;1.47;;
74219;SDS011;62580;54.416;11.120;2022-10-30T04:23:28;1.70;;;1.60;;
74219;SDS011;62580;54.416;11.120;2022-10-30T04:33:29;1.50;;;1.40;;
74219;SDS011;62580;54.416;11.120;2022-10-30T04:43:31;1.60;;;1.50;;
74219;SDS011;62580;54.416;11.120;2022-10-30T04:53:32;1.50;;;1.40;;
74219;SDS011;62580;54.416;11.120;2022-10-30T05:03:33;2.00;;;1.60;;
74219;SDS011;62580;54.416;11.120;2022-10-30T05:13:34;1.53;;;1.43;;
74219;SDS011;62580;54.416;11.120;2022-10-30T05:23:36;2.07;;;1.60;;
74219;SDS011;62580;54.416;11.120;2022-10-30T05:33:37;1.70;;;1.60;;
74219;SDS011;62580;54.416;11.120;2022-10-30T05:43:39;1.73;;;1.63;;
74219;SDS011;62580;54.416;11.120;2022-10-30T05:53:39;1.80;;;1.70;;
74219;SDS011;62580;54.416;11.120;2022-10-30T06:03:41;1.70;;;1.60;;
74219;SDS011;62580;54.416;11.120;2022-10-30T06:13:42;2.07;;;1.87;;
74219;SDS011;62580;54.416;11.120;2022-10-30T06:23:44;1.70;;;1.60;;
74219;SDS011;62580;54.416;11.120;2022-10-30T06:33:46;1.90;;;1.80;;
74219;SDS011;62580;54.416;11.120;2022-10-30T06:43:48;2.43;;;1.73;;
74219;SDS011;62580;54.416;11.120;2022-10-30T06:53:49;1.90;;;1.80;;
74219;SDS011;62580;54.416;11.120;2022-10-30T07:03:51;2.00;;;1.90;;
74219;SDS011;62580;54.416;11.120;2022-10-30T07:13:52;2.00;;;1.90;;
74219;SDS011;62580;54.416;11.120;2022-10-30T07:23:54;2.50;;;2.30;;
74219;SDS011;62580;54.416;11.120;2022-10-30T07:33:54;2.00;;;1.90;;
74219;SDS011;62580;54.416;11.120;2022-10-30T07:43:56;1.95;;;1.85;;
74219;SDS011;62580;54.416;11.120;2022-10-30T07:53:57;1.90;;;1.80;;
74219;SDS011;62580;54.416;11.120;2022-10-30T08:03:59;2.50;;;1.90;;
74219;SDS011;62580;54.416;11.120;2022-10-30T08:14:00;2.00;;;1.90;;
74219;SDS011;62580;54.416;11.120;2022-10-30T08:24:02;2.10;;;1.90;;
74219;SDS011;62580;54.416;11.120;2022-10-30T08:34:03;2.03;;;1.93;;
74219;SDS011;62580;54.416;11.120;2022-10-30T08:44:05;2.07;;;1.97;;
74219;SDS011;62580;54.416;11.120;2022-10-30T08:54:06;2.10;;;2.00;;
74219;SDS011;62580;54.416;11.120;2022-10-30T09:04:09;2.20;;;2.00;;
74219;SDS011;62580;54.416;11.120;2022-10-30T09:14:10;2.40;;;2.13;;
74219;SDS011;62580;54.416;11.120;2022-10-30T09:24:13;1.93;;;1.83;;
74219;SDS011;62580;54.416;11.120;2022-10-30T09:34:14;2.00;;;1.90;;
74219;SDS011;62580;54.416;11.120;2022-10-30T09:44:18;2.37;;;2.00;;
74219;SDS011;62580;54.416;11.120;2022-10-30T09:54:31;2.03;;;1.93;;
74219;SDS011;62580;54.416;11.120;2022-10-30T10:04:40;2.00;;;1.90;;
74219;SDS011;62580;54.416;11.120;2022-10-30T10:14:43;2.00;;;1.90;;
74219;SDS011;62580;54.416;11.120;2022-10-30T10:24:48;2.03;;;1.93;;
74219;SDS011;62580;54.416;11.120;2022-10-30T10:34:52;2.00;;;1.90;;
74219;SDS011;62580;54.416;11.120;2022-10-30T10:45:15;1.90;;;1.80;;
74219;SDS011;62580;54.416;11.120;2022-10-30T10:55:21;1.93;;;1.80;;
74219;SDS011;62580;54.416;11.120;2022-10-30T11:05:26;1.90;;;1.80;;
74219;SDS011;62580;54.416;11.120;2022-10-30T11:15:34;2.00;;;1.90;;
74219;SDS011;62580;54.416;11.120;2022-10-30T11:25:40;2.13;;;2.03;;
74219;SDS011;62580;54.416;11.120;2022-10-30T11:35:41;1.87;;;1.77;;
74219;SDS011;62580;54.416;11.120;2022-10-30T11:45:43;1.80;;;1.70;;
74219;SDS011;62580;54.416;11.120;2022-10-30T11:55:45;2.03;;;1.90;;
74219;SDS011;62580;54.416;11.120;2022-10-30T12:05:48;1.90;;;1.80;;
74219;SDS011;62580;54.416;11.120;2022-10-30T12:15:49;2.00;;;1.90;;
74219;SDS011;62580;54.416;11.120;2022-10-30T12:26:08;2.00;;;1.80;;
74219;SDS011;62580;54.416;11.120;2022-10-30T12:36:11;1.80;;;1.70;;
74219;SDS011;62580;54.416;11.120;2022-10-30T12:46:19;1.77;;;1.67;;
74219;SDS011;62580;54.416;11.120;2022-10-30T12:56:28;1.93;;;1.83;;
74219;SDS011;62580;54.416;11.120;2022-10-30T13:06:33;2.23;;;2.03;;
74219;SDS011;62580;54.416;11.120;2022-10-30T13:16:38;2.10;;;2.00;;
74219;SDS011;62580;54.416;11.120;2022-10-30T13:26:41;1.90;;;1.80;;
74219;SDS011;62580;54.416;11.120;2022-10-30T13:36:47;2.13;;;1.93;;
74219;SDS011;62580;54.416;11.120;2022-10-30T13:46:57;1.83;;;1.73;;
74219;SDS011;62580;54.416;11.120;2022-10-30T13:57:12;2.00;;;1.90;;
74219;SDS011;62580;54.416;11.120;2022-10-30T14:07:22;2.00;;;1.90;;
74219;SDS011;62580;54.416;11.120;2022-10-30T14:17:29;1.73;;;1.63;;
74219;SDS011;62580;54.416;11.120;2022-10-30T14:27:31;2.00;;;1.80;;
74219;SDS011;62580;54.416;11.120;2022-10-30T14:47:57;2.07;;;1.97;;
74219;SDS011;62580;54.416;11.120;2022-10-30T14:58:15;1.90;;;1.80;;
74219;SDS011;62580;54.416;11.120;2022-10-30T15:08:37;1.70;;;1.60;;
74219;SDS011;62580;54.416;11.120;2022-10-30T15:19:04;1.90;;;1.80;;
74219;SDS011;62580;54.416;11.120;2022-10-30T15:29:11;2.13;;;1.97;;
74219;SDS011;62580;54.416;11.120;2022-10-30T15:39:16;1.93;;;1.83;;
74219;SDS011;62580;54.416;11.120;2022-10-30T15:49:25;2.20;;;2.10;;
74219;SDS011;62580;54.416;11.120;2022-10-30T15:59:30;2.50;;;2.00;;
74219;SDS011;62580;54.416;11.120;2022-10-30T16:09:32;1.80;;;1.70;;
74219;SDS011;62580;54.416;11.120;2022-10-30T16:19:34;2.40;;;2.20;;
74219;SDS011;62580;54.416;11.120;2022-10-30T16:29:40;1.93;;;1.83;;
74219;SDS011;62580;54.416;11.120;2022-10-30T16:39:41;2.17;;;2.00;;
74219;SDS011;62580;54.416;11.120;2022-10-30T16:49:44;1.90;;;1.80;;
74219;SDS011;62580;54.416;11.120;2022-10-30T16:59:48;2.13;;;2.03;;
74219;SDS011;62580;54.416;11.120;2022-10-30T17:09:52;2.30;;;2.10;;
74219;SDS011;62580;54.416;11.120;2022-10-30T17:19:56;1.83;;;1.73;;
74219;SDS011;62580;54.416;11.120;2022-10-30T17:29:58;2.10;;;2.00;;
74219;SDS011;62580;54.416;11.120;2022-10-30T17:39:59;2.30;;;2.10;;
74219;SDS011;62580;54.416;11.120;2022-10-30T17:50:01;2.50;;;2.30;;
74219;SDS011;62580;54.416;11.120;2022-10-30T18:00:03;2.30;;;2.10;;
74219;SDS011;62580;54.416;11.120;2022-10-30T18:10:06;2.00;;;1.90;;
74219;SDS011;62580;54.416;11.120;2022-10-30T18:20:08;2.23;;;2.07;;
74219;SDS011;62580;54.416;11.120;2022-10-30T18:30:11;2.20;;;2.10;;
74219;SDS011;62580;54.416;11.120;2022-10-30T18:40:12;2.50;;;2.20;;
74219;SDS011;62580;54.416;11.120;2022-10-30T18:50:15;2.00;;;1.90;;
74219;SDS011;62580;54.416;11.120;2022-10-30T19:00:17;2.47;;;2.27;;
74219;SDS011;62580;54.416;11.120;2022-10-30T19:10:21;2.40;;;2.20;;
74219;SDS011;62580;54.416;11.120;2022-10-30T19:20:22;1.93;;;1.83;;
74219;SDS011;62580;54.416;11.120;2022-10-30T19:30:24;2.30;;;2.10;;
74219;SDS011;62580;54.416;11.120;2022-10-30T19:40:26;2.93;;;2.10;;
74219;SDS011;62580;54.416;11.120;2022-10-30T19:50:32;2.00;;;1.90;;
74219;SDS011;62580;54.416;11.120;2022-10-30T20:00:35;2.10;;;2.00;;
74219;SDS011;62580;54.416;11.120;2022-10-30T20:10:38;2.30;;;2.10;;
74219;SDS011;62580;54.416;11.120;2022-10-30T20:20:44;2.40;;;2.20;;
74219;SDS011;62580;54.416;11.120;2022-10-30T20:30:47;2.40;;;2.20;;
74219;SDS011;62580;54.416;11.120;2022-10-30T20:40:48;2.70;;;2.03;;
74219;SDS011;62580;54.416;11.120;2022-10-30T20:50:51;2.30;;;2.10;;
74219;SDS011;62580;54.416;11.120;2022-10-30T21:00:53;2.77;;;2.20;;
74219;SDS011;62580;54.416;11.120;2022-10-30T21:10:57;2.07;;;1.67;;
74219;SDS011;62580;54.416;11.120;2022-10-30T21:20:58;2.20;;;2.00;;
74219;SDS011;62580;54.416;11.120;2022-10-30T21:31:01;1.80;;;1.70;;
74219;SDS011;62580;54.416;11.120;2022-10-30T21:41:03;2.20;;;2.10;;
74219;SDS011;62580;54.416;11.120;2022-10-30T21:51:06;2.20;;;2.00;;
74219;SDS011;62580;54.416;11.120;2022-10-30T22:01:11;1.90;;;1.80;;
74219;SDS011;62580;54.416;11.120;2022-10-30T22:11:15;2.13;;;1.97;;
74219;SDS011;62580;54.416;11.120;2022-10-30T22:21:16;1.97;;;1.87;;
74219;SDS011;62580;54.416;11.120;2022-10-30T22:31:19;1.93;;;1.83;;
74219;SDS011;62580;54.416;11.120;2022-10-30T22:41:21;2.00;;;1.90;;
74219;SDS011;62580;54.416;11.120;2022-10-30T22:51:24;2.40;;;2.20;;
74219;SDS011;62580;54.416;11.120;2022-10-30T23:01:25;2.20;;;2.00;;
74219;SDS011;62580;54.416;11.120;2022-10-30T23:11:29;2.20;;;2.00;;
74219;SDS011;62580;54.416;11.120;2022-10-30T23:21:30;2.37;;;1.87;;
74219;SDS011;62580;54.416;11.120;2022-10-30T23:31:33;2.43;;;1.93;;
74219;SDS011;62580;54.416;11.120;2022-10-30T23:41:35;2.10;;;1.90;;
74219;SDS011;62580;54.416;11.120;2022-10-30T23:51:37;2.23;;;2.13;;
